createdAt,value
2019-02-05T00:01:40.481Z,9.83
2019-02-05T00:04:10.028Z,9.90
2019-02-05T00:06:39.541Z,9.60
2019-02-05T00:09:10.762Z,9.80
2019-02-05T00:11:40.246Z,10.10
2019-02-05T00:14:09.771Z,9.97
2019-02-05T00:16:39.505Z,10.90
2019-02-05T00:19:08.951Z,9.27
2019-02-05T00:21:38.569Z,10.37
2019-02-05T00:24:08.088Z,10.33
2019-02-05T00:26:37.503Z,9.90
2019-02-05T00:29:07.053Z,11.20
2019-02-05T00:31:36.892Z,10.63
2019-02-05T00:34:06.743Z,10.20
2019-02-05T00:36:36.156Z,10.67
2019-02-05T00:39:08.636Z,10.47
2019-02-05T00:41:38.101Z,12.13
2019-02-05T00:44:07.543Z,12.60
2019-02-05T00:46:36.985Z,11.53
2019-02-05T00:49:06.435Z,11.80
2019-02-05T00:51:35.975Z,12.03
2019-02-05T00:54:05.584Z,12.03
2019-02-05T00:56:35.044Z,11.60
2019-02-05T00:59:04.694Z,11.63
2019-02-05T01:01:34.167Z,11.40
2019-02-05T01:04:03.863Z,11.07
2019-02-05T01:06:33.261Z,11.23
2019-02-05T01:09:03.808Z,12.33
2019-02-05T01:11:33.243Z,12.50
2019-02-05T01:14:04.562Z,12.20
2019-02-05T01:16:33.990Z,12.47
2019-02-05T01:19:03.957Z,12.07
2019-02-05T01:21:33.365Z,11.70
2019-02-05T01:24:02.827Z,11.77
2019-02-05T01:26:32.281Z,12.90
2019-02-05T01:29:02.069Z,12.27
2019-02-05T01:31:31.521Z,12.77
2019-02-05T01:34:00.979Z,11.57
2019-02-05T01:36:30.435Z,12.10
2019-02-05T01:38:59.909Z,11.53
2019-02-05T01:41:29.355Z,11.77
2019-02-05T01:43:58.762Z,11.77
2019-02-05T01:46:28.193Z,12.10
2019-02-05T01:48:57.980Z,11.70
2019-02-05T01:51:27.407Z,11.67
2019-02-05T01:53:56.891Z,11.03
2019-02-05T01:56:26.396Z,11.10
2019-02-05T01:58:55.957Z,10.93
2019-02-05T02:01:25.497Z,11.40
2019-02-05T02:03:54.972Z,11.47
2019-02-05T02:06:24.444Z,11.57
2019-02-05T02:08:54.211Z,11.50
2019-02-05T02:11:24.091Z,11.57
2019-02-05T02:13:53.453Z,11.37
2019-02-05T02:16:22.995Z,12.60
2019-02-05T02:18:52.429Z,12.23
2019-02-05T02:21:21.880Z,12.03
2019-02-05T02:23:51.357Z,12.20
2019-02-05T02:26:21.455Z,12.33
2019-02-05T02:28:50.888Z,12.90
2019-02-05T02:31:20.363Z,13.50
2019-02-05T02:33:49.830Z,13.47
2019-02-05T02:36:19.280Z,13.97
2019-02-05T02:38:48.707Z,13.80
2019-02-05T02:41:18.519Z,14.10
2019-02-05T02:43:47.936Z,13.53
2019-02-05T02:46:17.381Z,14.63
2019-02-05T02:48:46.941Z,15.07
2019-02-05T02:51:16.390Z,15.33
2019-02-05T02:53:45.868Z,15.07
2019-02-05T02:56:15.793Z,14.70
2019-02-05T02:58:45.643Z,15.00
2019-02-05T03:01:15.559Z,16.77
2019-02-05T03:03:45.025Z,15.73
2019-02-05T03:06:14.433Z,16.63
2019-02-05T03:08:43.893Z,17.03
2019-02-05T03:11:13.741Z,15.77
2019-02-05T03:13:43.203Z,17.17
2019-02-05T03:16:13.009Z,17.37
2019-02-05T03:18:42.507Z,15.93
2019-02-05T03:21:11.964Z,16.53
2019-02-05T03:23:41.460Z,17.10
2019-02-05T03:26:10.946Z,18.57
2019-02-05T03:28:40.757Z,18.87
2019-02-05T03:31:10.249Z,16.43
2019-02-05T03:33:39.715Z,18.40
2019-02-05T03:36:09.222Z,18.13
2019-02-05T03:38:38.669Z,18.77
2019-02-05T03:41:08.876Z,18.43
2019-02-05T03:43:39.983Z,19.00
2019-02-05T03:46:15.817Z,20.10
2019-02-05T03:48:48.347Z,18.67
2019-02-05T03:52:10.797Z,19.00
2019-02-05T03:55:16.597Z,20.20
2019-02-05T03:58:28.241Z,18.73
2019-02-05T04:01:38.469Z,19.93
2019-02-05T04:04:38.232Z,20.17
2019-02-05T04:07:51.963Z,21.53
2019-02-05T04:10:58.858Z,21.07
2019-02-05T04:14:11.355Z,21.20
2019-02-05T04:17:07.839Z,21.53
2019-02-05T04:20:23.231Z,21.13
2019-02-05T04:23:18.733Z,21.83
2019-02-05T04:26:35.532Z,21.97
2019-02-05T04:29:44.444Z,22.90
2019-02-05T04:32:43.345Z,22.47
2019-02-05T04:35:44.263Z,22.13
2019-02-05T04:39:01.462Z,23.67
2019-02-05T04:42:06.994Z,23.53
2019-02-05T04:45:33.772Z,24.10
2019-02-05T04:48:31.478Z,23.70
2019-02-05T04:51:42.114Z,24.47
2019-02-05T04:54:47.025Z,24.73
2019-02-05T04:58:03.356Z,25.33
2019-02-05T05:00:59.306Z,24.90
2019-02-05T05:04:09.571Z,24.87
2019-02-05T05:07:23.524Z,24.73
2019-02-05T05:10:00.430Z,24.03
2019-02-05T05:12:30.563Z,25.43
2019-02-05T05:15:00.486Z,25.33
2019-02-05T05:17:29.885Z,26.13
2019-02-05T05:19:59.650Z,25.87
2019-02-05T05:22:29.093Z,25.97
2019-02-05T05:24:59.457Z,25.90
2019-02-05T05:27:29.310Z,27.57
2019-02-05T05:29:59.034Z,26.60
2019-02-05T05:32:28.590Z,25.67
2019-02-05T05:34:58.078Z,27.53
2019-02-05T05:37:27.521Z,26.67
2019-02-05T05:39:56.975Z,27.47
2019-02-05T05:42:27.413Z,27.10
2019-02-05T05:44:56.892Z,26.37
2019-02-05T05:47:26.335Z,26.23
2019-02-05T05:49:56.105Z,27.00
2019-02-05T05:52:25.589Z,28.23
2019-02-05T05:54:55.020Z,27.27
2019-02-05T05:57:24.456Z,27.87
2019-02-05T05:59:53.904Z,27.57
2019-02-05T06:02:23.576Z,27.13
2019-02-05T06:04:52.994Z,28.00
2019-02-05T06:07:22.518Z,28.20
2019-02-05T06:09:51.955Z,26.50
2019-02-05T06:12:21.762Z,25.93
2019-02-05T06:14:51.695Z,27.10
2019-02-05T06:17:21.193Z,26.53
2019-02-05T06:19:50.619Z,26.23
2019-02-05T06:22:20.070Z,26.30
2019-02-05T06:24:49.499Z,25.93
2019-02-05T06:27:18.977Z,24.00
2019-02-05T06:29:48.917Z,24.83
2019-02-05T06:32:18.410Z,25.97
2019-02-05T06:34:47.860Z,26.80
2019-02-05T06:37:17.300Z,23.90
2019-02-05T06:39:47.151Z,23.53
2019-02-05T06:42:16.784Z,23.47
2019-02-05T06:44:46.918Z,22.90
2019-02-05T06:47:16.763Z,22.53
2019-02-05T06:49:46.192Z,22.80
2019-02-05T06:52:15.645Z,21.47
2019-02-05T06:54:45.080Z,21.40
2019-02-05T06:57:14.575Z,20.67
2019-02-05T06:59:44.023Z,20.23
2019-02-05T07:02:13.542Z,20.50
2019-02-05T07:04:43.045Z,20.83
2019-02-05T07:07:12.823Z,19.70
2019-02-05T07:09:42.307Z,19.70
2019-02-05T07:12:12.511Z,19.90
2019-02-05T07:14:42.440Z,18.70
2019-02-05T07:17:12.243Z,18.60
2019-02-05T07:19:42.087Z,19.20
2019-02-05T07:22:11.567Z,19.23
2019-02-05T07:24:41.005Z,19.30
2019-02-05T07:27:10.919Z,19.47
2019-02-05T07:29:40.410Z,18.80
2019-02-05T07:32:10.209Z,19.10
2019-02-05T07:34:39.669Z,19.33
2019-02-05T07:37:09.153Z,20.07
2019-02-05T07:39:38.639Z,20.03
2019-02-05T07:42:08.128Z,20.30
2019-02-05T07:44:40.011Z,19.53
2019-02-05T07:47:08.740Z,20.90
2019-02-05T07:49:38.642Z,21.23
2019-02-05T07:52:08.170Z,21.00
2019-02-05T07:54:37.672Z,21.00
2019-02-05T07:57:07.147Z,21.23
2019-02-05T07:59:36.677Z,21.60
2019-02-05T08:02:06.225Z,21.80
2019-02-05T08:04:35.751Z,22.33
2019-02-05T08:07:07.682Z,21.60
2019-02-05T08:09:37.246Z,21.37
2019-02-05T08:12:06.968Z,21.13
2019-02-05T08:14:36.823Z,22.20
2019-02-05T08:17:06.325Z,22.70
2019-02-05T08:19:35.762Z,22.93
2019-02-05T08:22:05.727Z,21.93
2019-02-05T08:24:36.030Z,23.60
2019-02-05T08:27:05.813Z,22.20
2019-02-05T08:29:35.291Z,22.63
2019-02-05T08:32:04.799Z,24.43
2019-02-05T08:34:34.231Z,24.93
2019-02-05T08:37:03.749Z,22.10
2019-02-05T08:39:33.588Z,23.47
2019-02-05T08:42:03.113Z,23.30
2019-02-05T08:44:32.720Z,22.87
2019-02-05T08:47:02.335Z,22.40
2019-02-05T08:49:32.076Z,23.67
2019-02-05T08:52:01.556Z,22.20
2019-02-05T08:54:31.112Z,23.03
2019-02-05T08:57:01.035Z,22.77
2019-02-05T08:59:30.656Z,22.27
2019-02-05T09:02:00.187Z,22.47
2019-02-05T09:04:29.684Z,22.70
2019-02-05T09:07:08.450Z,21.67
2019-02-05T09:09:38.425Z,20.93
2019-02-05T09:12:08.071Z,22.87
2019-02-05T09:14:37.995Z,23.73
2019-02-05T09:17:07.749Z,21.87
2019-02-05T09:19:37.197Z,22.93
2019-02-05T09:22:06.689Z,23.53
2019-02-05T09:24:36.203Z,23.17
2019-02-05T09:27:06.571Z,23.03
2019-02-05T09:29:36.049Z,24.33
2019-02-05T09:32:05.716Z,23.37
2019-02-05T09:34:35.125Z,24.30
2019-02-05T09:37:04.626Z,25.10
2019-02-05T09:39:34.417Z,23.80
2019-02-05T09:42:03.951Z,25.00
2019-02-05T09:44:33.477Z,25.17
2019-02-05T09:47:03.389Z,24.27
2019-02-05T09:49:32.861Z,24.43
2019-02-05T09:52:02.405Z,25.00
2019-02-05T09:54:31.851Z,24.07
2019-02-05T09:57:01.307Z,23.43
2019-02-05T09:59:30.988Z,26.20
2019-02-05T10:02:00.504Z,23.83
2019-02-05T10:04:29.945Z,25.77
2019-02-05T10:06:59.433Z,24.20
2019-02-05T10:09:28.870Z,22.90
2019-02-05T10:11:58.776Z,23.67
2019-02-05T10:14:28.229Z,21.83
2019-02-05T10:16:57.732Z,21.97
2019-02-05T10:19:27.437Z,21.57
2019-02-05T10:21:56.993Z,23.50
2019-02-05T10:24:27.404Z,21.93
2019-02-05T10:26:56.871Z,22.37
2019-02-05T10:29:26.337Z,20.57
2019-02-05T10:31:56.568Z,21.33
2019-02-05T10:34:33.885Z,20.80
2019-02-05T10:36:57.171Z,18.63
2019-02-05T10:39:26.638Z,20.00
2019-02-05T10:41:56.172Z,19.93
2019-02-05T10:44:25.661Z,20.53
2019-02-05T10:46:55.541Z,19.93
2019-02-05T10:49:24.983Z,18.00
2019-02-05T10:51:54.457Z,16.80
2019-02-05T10:54:23.898Z,17.33
2019-02-05T10:56:53.389Z,17.53
2019-02-05T10:59:23.281Z,17.90
2019-02-05T11:01:53.189Z,17.60
2019-02-05T11:04:23.103Z,16.93
2019-02-05T11:06:52.590Z,17.57
2019-02-05T11:09:22.288Z,17.23
2019-02-05T11:11:51.775Z,17.53
2019-02-05T11:14:21.245Z,16.53
2019-02-05T11:16:50.692Z,17.57
2019-02-05T11:19:20.567Z,17.83
2019-02-05T11:21:50.307Z,16.93
2019-02-05T11:24:20.363Z,16.50
2019-02-05T11:26:49.801Z,16.97
2019-02-05T11:29:19.691Z,17.23
2019-02-05T11:31:49.142Z,15.67
2019-02-05T11:34:18.593Z,16.83
2019-02-05T11:36:48.077Z,17.40
2019-02-05T11:39:17.747Z,16.53
2019-02-05T11:41:47.260Z,17.23
2019-02-05T11:44:16.747Z,16.20
2019-02-05T11:46:46.280Z,15.80
2019-02-05T11:49:15.769Z,16.77
2019-02-05T11:51:45.571Z,16.47
2019-02-05T11:54:15.355Z,15.97
2019-02-05T11:56:44.879Z,16.30
2019-02-05T11:59:14.387Z,16.93
2019-02-05T12:01:44.167Z,16.40
2019-02-05T12:04:13.659Z,16.63
2019-02-05T12:06:43.341Z,16.97
2019-02-05T12:09:24.581Z,17.53
2019-02-05T12:11:54.067Z,17.43
2019-02-05T12:14:23.648Z,15.87
2019-02-05T12:16:53.077Z,16.13
2019-02-05T12:19:22.641Z,16.40
2019-02-05T12:21:52.503Z,15.80
2019-02-05T12:24:21.990Z,16.23
2019-02-05T12:26:51.486Z,14.97
2019-02-05T12:29:20.935Z,15.13
2019-02-05T12:31:50.454Z,16.50
2019-02-05T12:34:19.984Z,16.03
2019-02-05T12:36:49.678Z,15.67
2019-02-05T12:39:20.190Z,15.90
2019-02-05T12:41:49.778Z,14.97
2019-02-05T12:44:19.239Z,14.83
2019-02-05T12:46:48.731Z,14.60
2019-02-05T12:49:18.205Z,15.60
2019-02-05T12:51:47.787Z,14.97
2019-02-05T12:54:17.801Z,15.13
2019-02-05T12:56:47.284Z,14.97
2019-02-05T12:59:16.744Z,16.00
2019-02-05T13:01:46.231Z,15.80
2019-02-05T13:04:15.867Z,16.13
2019-02-05T13:06:45.364Z,17.07
2019-02-05T13:09:15.063Z,18.80
2019-02-05T13:11:44.508Z,17.40
2019-02-05T13:14:14.003Z,17.43
2019-02-05T13:16:43.760Z,18.80
2019-02-05T13:19:13.292Z,19.30
2019-02-05T13:21:42.707Z,19.30
2019-02-05T13:24:12.208Z,18.73
2019-02-05T13:26:41.719Z,18.73
2019-02-05T13:29:11.605Z,18.53
2019-02-05T13:31:41.298Z,18.93
2019-02-05T13:34:10.861Z,20.80
2019-02-05T13:36:40.779Z,20.27
2019-02-05T13:39:13.030Z,19.90
2019-02-05T13:41:42.641Z,20.70
2019-02-05T13:44:12.160Z,20.87
2019-02-05T13:46:41.607Z,22.20
2019-02-05T13:49:11.076Z,20.10
2019-02-05T13:51:40.630Z,21.50
2019-02-05T13:54:10.150Z,20.03
2019-02-05T13:56:39.803Z,21.47
2019-02-05T13:59:09.277Z,21.37
2019-02-05T14:01:38.731Z,21.43
2019-02-05T14:04:08.358Z,19.93
2019-02-05T14:06:38.016Z,20.57
2019-02-05T14:09:13.024Z,21.73
2019-02-05T14:11:42.513Z,21.53
2019-02-05T14:14:11.998Z,22.00
2019-02-05T14:16:41.902Z,22.73
2019-02-05T14:19:11.370Z,22.47
2019-02-05T14:21:40.895Z,21.73
2019-02-05T14:24:10.422Z,21.87
2019-02-05T14:26:40.253Z,21.80
2019-02-05T14:29:09.729Z,22.97
2019-02-05T14:31:39.606Z,23.00
2019-02-05T14:34:09.058Z,22.93
2019-02-05T14:36:38.853Z,22.97
2019-02-05T14:39:10.766Z,23.57
2019-02-05T14:41:40.355Z,23.33
2019-02-05T14:44:09.922Z,23.67
2019-02-05T14:46:39.596Z,22.23
2019-02-05T14:49:09.562Z,21.43
2019-02-05T14:51:39.372Z,22.07
2019-02-05T14:54:09.234Z,22.73
2019-02-05T14:56:38.715Z,20.83
2019-02-05T14:59:08.446Z,22.03
2019-02-05T15:01:43.341Z,22.17
2019-02-05T15:04:09.689Z,20.20
2019-02-05T15:06:39.192Z,21.33
2019-02-05T15:09:09.108Z,20.17
2019-02-05T15:11:38.687Z,19.47
2019-02-05T15:14:08.372Z,20.90
2019-02-05T15:16:37.940Z,20.17
2019-02-05T15:19:07.394Z,19.67
2019-02-05T15:21:36.959Z,20.37
2019-02-05T15:24:06.978Z,20.90
2019-02-05T15:26:36.452Z,19.87
2019-02-05T15:29:06.183Z,21.57
2019-02-05T15:31:36.156Z,21.50
2019-02-05T15:34:21.118Z,21.37
2019-02-05T15:36:51.422Z,20.33
2019-02-05T15:39:20.908Z,22.10
2019-02-05T15:41:51.101Z,22.23
2019-02-05T15:44:20.585Z,22.73
2019-02-05T15:46:50.031Z,23.80
2019-02-05T15:49:19.537Z,22.73
2019-02-05T15:51:49.329Z,23.73
2019-02-05T15:54:18.818Z,24.03
2019-02-05T15:56:48.716Z,23.77
2019-02-05T15:59:18.207Z,23.13
2019-02-05T16:01:47.778Z,23.37
2019-02-05T16:04:17.303Z,23.10
2019-02-05T16:06:46.818Z,23.50
2019-02-05T16:09:16.282Z,24.00
2019-02-05T16:11:45.723Z,23.17
2019-02-05T16:14:15.218Z,22.60
2019-02-05T16:16:44.707Z,22.40
2019-02-05T16:19:14.265Z,22.93
2019-02-05T16:21:43.734Z,22.67
2019-02-05T16:24:13.214Z,22.77
2019-02-05T16:26:42.710Z,22.77
2019-02-05T16:29:12.167Z,23.23
2019-02-05T16:31:41.665Z,23.07
2019-02-05T16:34:11.561Z,22.50
2019-02-05T16:36:41.451Z,22.53
2019-02-05T16:39:11.783Z,22.23
2019-02-05T16:41:41.278Z,21.87
2019-02-05T16:44:10.917Z,22.40
2019-02-05T16:46:40.456Z,22.93
2019-02-05T16:49:09.931Z,21.87
2019-02-05T16:51:39.442Z,21.73
2019-02-05T16:54:09.897Z,21.77
2019-02-05T16:56:40.147Z,22.07
2019-02-05T16:59:09.717Z,21.53
2019-02-05T17:01:39.270Z,22.03
2019-02-05T17:04:09.095Z,21.57
2019-02-05T17:06:39.199Z,22.60
2019-02-05T17:09:15.463Z,21.90
2019-02-05T17:11:44.888Z,21.17
2019-02-05T17:14:14.420Z,22.77
2019-02-05T17:16:43.871Z,22.73
2019-02-05T17:19:13.685Z,21.87
2019-02-05T17:21:43.235Z,22.00
2019-02-05T17:24:13.665Z,21.23
2019-02-05T17:26:43.336Z,22.53
2019-02-05T17:29:12.918Z,21.30
2019-02-05T17:31:42.527Z,22.10
2019-02-05T17:34:12.059Z,23.03
2019-02-05T17:36:41.969Z,22.13
2019-02-05T17:39:13.603Z,21.70
2019-02-05T17:41:43.081Z,21.60
2019-02-05T17:44:12.629Z,21.83
2019-02-05T17:46:42.087Z,21.33
2019-02-05T17:49:12.293Z,23.07
2019-02-05T17:51:42.229Z,23.23
2019-02-05T17:54:12.077Z,22.57
2019-02-05T17:56:41.637Z,21.43
2019-02-05T17:59:11.482Z,21.53
2019-02-05T18:01:41.354Z,22.47
2019-02-05T18:04:10.817Z,21.47
2019-02-05T18:06:40.329Z,20.87
2019-02-05T18:09:10.369Z,21.17
2019-02-05T18:11:40.857Z,22.57
2019-02-05T18:14:10.872Z,20.97
2019-02-05T18:16:40.706Z,20.20
2019-02-05T18:19:10.411Z,20.83
2019-02-05T18:21:39.871Z,21.40
2019-02-05T18:24:09.355Z,21.93
2019-02-05T18:26:39.457Z,22.27
2019-02-05T18:29:09.219Z,21.90
2019-02-05T18:31:39.148Z,20.87
2019-02-05T18:34:08.643Z,22.70
2019-02-05T18:36:38.873Z,22.40
2019-02-05T18:39:10.113Z,21.70
2019-02-05T18:41:39.689Z,21.57
2019-02-05T18:44:09.884Z,22.70
2019-02-05T18:46:39.437Z,22.40
2019-02-05T18:49:09.344Z,21.67
2019-02-05T18:51:39.447Z,21.90
2019-02-05T18:54:08.917Z,22.43
2019-02-05T18:56:38.391Z,22.73
2019-02-05T18:59:08.169Z,23.60
2019-02-05T19:01:37.653Z,22.83
2019-02-05T19:04:08.237Z,22.43
2019-02-05T19:06:37.721Z,22.43
2019-02-05T19:09:14.070Z,24.37
2019-02-05T19:11:43.539Z,24.53
2019-02-05T19:14:13.031Z,23.83
2019-02-05T19:16:42.535Z,26.77
2019-02-05T19:19:14.900Z,23.70
2019-02-05T19:21:43.903Z,24.57
2019-02-05T19:24:50.629Z,23.53
2019-02-05T19:27:20.311Z,23.37
2019-02-05T19:29:49.806Z,24.20
2019-02-05T19:32:23.369Z,24.50
2019-02-05T19:34:52.885Z,22.93
2019-02-05T19:37:22.379Z,23.67
2019-02-05T19:39:52.188Z,24.17
2019-02-05T19:42:21.753Z,24.07
2019-02-05T19:45:01.252Z,25.23
2019-02-05T19:47:33.350Z,23.43
2019-02-05T19:50:03.549Z,23.90
2019-02-05T19:52:33.738Z,23.90
2019-02-05T19:55:03.222Z,23.13
2019-02-05T19:57:32.787Z,23.23
2019-02-05T20:00:02.654Z,23.37
2019-02-05T20:02:32.236Z,23.73
2019-02-05T20:05:01.694Z,23.57
2019-02-05T20:07:31.589Z,24.60
2019-02-05T20:10:01.154Z,23.27
2019-02-05T20:12:31.183Z,23.83
2019-02-05T20:15:00.723Z,23.17
2019-02-05T20:17:30.278Z,23.83
2019-02-05T20:19:59.773Z,23.97
2019-02-05T20:22:29.331Z,25.40
2019-02-05T20:24:58.918Z,23.17
2019-02-05T20:27:47.749Z,23.43
2019-02-05T20:30:17.977Z,23.53
2019-02-05T20:32:47.512Z,23.83
2019-02-05T20:35:17.063Z,24.07
2019-02-05T20:37:46.925Z,23.30
2019-02-05T20:40:17.387Z,23.77
2019-02-05T20:42:47.024Z,23.93
2019-02-05T20:45:16.811Z,24.13
2019-02-05T20:47:46.499Z,24.20
2019-02-05T20:50:16.445Z,24.37
2019-02-05T20:52:45.887Z,24.73
2019-02-05T20:55:16.770Z,24.23
2019-02-05T20:57:46.769Z,23.73
2019-02-05T21:00:19.117Z,23.33
2019-02-05T21:02:48.675Z,23.87
2019-02-05T21:05:19.239Z,24.90
2019-02-05T21:07:49.132Z,25.47
2019-02-05T21:10:21.662Z,24.20
2019-02-05T21:12:51.520Z,23.30
2019-02-05T21:15:22.389Z,23.50
2019-02-05T21:17:52.059Z,24.33
2019-02-05T21:20:29.260Z,25.70
2019-02-05T21:22:56.580Z,24.53
2019-02-05T21:25:24.887Z,24.63
2019-02-05T21:27:57.944Z,23.90
2019-02-05T21:30:35.103Z,24.57
2019-02-05T21:33:05.041Z,24.73
2019-02-05T21:35:34.530Z,25.23
2019-02-05T21:38:04.115Z,25.63
2019-02-05T21:40:33.706Z,24.80
2019-02-05T21:43:03.647Z,24.67
2019-02-05T21:45:33.271Z,23.73
2019-02-05T21:48:03.085Z,25.47
2019-02-05T21:50:32.569Z,25.03
2019-02-05T21:53:02.422Z,25.57
2019-02-05T21:55:31.867Z,25.20
2019-02-05T21:58:01.422Z,25.67
2019-02-05T22:00:31.859Z,24.67
2019-02-05T22:03:01.641Z,24.47
2019-02-05T22:05:31.645Z,24.03
2019-02-05T22:08:01.555Z,25.47
2019-02-05T22:10:31.342Z,24.27
2019-02-05T22:13:00.824Z,25.57
2019-02-05T22:15:30.827Z,25.27
2019-02-05T22:18:00.463Z,25.40
2019-02-05T22:20:30.481Z,24.90
2019-02-05T22:23:00.132Z,25.43
2019-02-05T22:25:29.925Z,25.30
2019-02-05T22:27:59.535Z,24.17
2019-02-05T22:30:31.155Z,24.87
2019-02-05T22:33:00.959Z,25.23
2019-02-05T22:35:30.650Z,24.20
2019-02-05T22:38:00.119Z,23.93
2019-02-05T22:40:29.587Z,25.10
2019-02-05T22:42:59.101Z,23.13
2019-02-05T22:45:30.176Z,24.23
2019-02-05T22:47:59.655Z,23.07
2019-02-05T22:50:31.206Z,24.37
2019-02-05T22:53:01.561Z,23.03
2019-02-05T22:55:31.145Z,23.07
2019-02-05T22:58:00.884Z,23.43
2019-02-05T23:01:04.972Z,23.13
2019-02-05T23:04:00.220Z,21.83
2019-02-05T23:06:54.230Z,22.63
2019-02-05T23:09:53.243Z,23.30
2019-02-05T23:12:32.388Z,21.63
2019-02-05T23:15:07.938Z,23.13
2019-02-05T23:17:37.434Z,21.13
2019-02-05T23:20:10.095Z,21.40
2019-02-05T23:22:39.667Z,21.20
2019-02-05T23:25:10.422Z,22.93
2019-02-05T23:27:40.268Z,23.53
2019-02-05T23:30:16.839Z,21.30
2019-02-05T23:32:46.286Z,22.77
2019-02-05T23:35:15.913Z,23.27
2019-02-05T23:37:46.281Z,22.77
2019-02-05T23:40:15.968Z,22.53
2019-02-05T23:42:45.435Z,23.70
2019-02-05T23:45:15.373Z,23.43
2019-02-05T23:47:44.953Z,24.90
2019-02-05T23:50:16.034Z,22.87
2019-02-05T23:52:45.650Z,24.00
2019-02-05T23:55:16.301Z,23.97
2019-02-05T23:57:45.725Z,23.87
